sensor_id;sensor_type;location;lat;lon;timestamp;pressure;altitude;pressure_sealevel;temperature;humidity
43707;BME280;61348;53.392;-6.248;2023-03-25T00:00:13;98589.53;;;7.74;88.64
43707;BME280;61348;53.392;-6.248;2023-03-25T00:02:45;98599.78;;;7.77;89.28
43707;BME280;61348;53.392;-6.248;2023-03-25T00:05:14;98600.19;;;7.79;89.00
43707;BME280;61348;53.392;-6.248;2023-03-25T00:07:44;98606.13;;;7.81;88.89
43707;BME280;61348;53.392;-6.248;2023-03-25T00:10:12;98611.25;;;7.83;88.88
43707;BME280;61348;53.392;-6.248;2023-03-25T00:12:40;98617.19;;;7.85;89.08
43707;BME280;61348;53.392;-6.248;2023-03-25T00:15:09;98633.31;;;7.86;88.95
43707;BME280;61348;53.392;-6.248;2023-03-25T00:17:36;98627.41;;;7.84;88.89
43707;BME280;61348;53.392;-6.248;2023-03-25T00:20:06;98635.66;;;7.84;89.11
43707;BME280;61348;53.392;-6.248;2023-03-25T00:22:35;98630.94;;;7.85;89.13
43707;BME280;61348;53.392;-6.248;2023-03-25T00:25:08;98643.94;;;7.84;89.22
43707;BME280;61348;53.392;-6.248;2023-03-25T00:27:34;98647.09;;;7.86;89.22
43707;BME280;61348;53.392;-6.248;2023-03-25T00:30:02;98646.31;;;7.86;89.14
43707;BME280;61348;53.392;-6.248;2023-03-25T00:32:29;98646.31;;;7.86;89.39
43707;BME280;61348;53.392;-6.248;2023-03-25T00:34:56;98658.91;;;7.87;89.22
43707;BME280;61348;53.392;-6.248;2023-03-25T00:37:23;98660.88;;;7.86;89.34
43707;BME280;61348;53.392;-6.248;2023-03-25T00:39:51;98662.47;;;7.87;89.34
43707;BME280;61348;53.392;-6.248;2023-03-25T00:42:17;98659.31;;;7.85;89.56
43707;BME280;61348;53.392;-6.248;2023-03-25T00:44:52;98663.25;;;7.88;89.72
43707;BME280;61348;53.392;-6.248;2023-03-25T00:47:19;98667.16;;;7.87;90.00
43707;BME280;61348;53.392;-6.248;2023-03-25T00:49:48;98675.06;;;7.88;90.14
43707;BME280;61348;53.392;-6.248;2023-03-25T00:52:15;98667.97;;;7.87;90.01
43707;BME280;61348;53.392;-6.248;2023-03-25T00:54:42;98666.38;;;7.86;90.15
43707;BME280;61348;53.392;-6.248;2023-03-25T00:57:11;98678.53;;;7.82;90.21
43707;BME280;61348;53.392;-6.248;2023-03-25T00:59:38;98685.22;;;7.81;90.66
43707;BME280;61348;53.392;-6.248;2023-03-25T01:02:04;98676.16;;;7.80;90.50
43707;BME280;61348;53.392;-6.248;2023-03-25T01:04:33;98676.53;;;7.79;90.68
43707;BME280;61348;53.392;-6.248;2023-03-25T01:07:00;98688.34;;;7.79;90.99
43707;BME280;61348;53.392;-6.248;2023-03-25T01:09:29;98695.44;;;7.80;91.21
43707;BME280;61348;53.392;-6.248;2023-03-25T01:11:56;98704.13;;;7.82;90.82
43707;BME280;61348;53.392;-6.248;2023-03-25T01:14:23;98698.63;;;7.82;91.17
43707;BME280;61348;53.392;-6.248;2023-03-25T01:16:53;98699.81;;;7.85;91.14
43707;BME280;61348;53.392;-6.248;2023-03-25T01:19:21;98700.97;;;7.84;91.17
43707;BME280;61348;53.392;-6.248;2023-03-25T01:21:48;98706.88;;;7.82;91.35
43707;BME280;61348;53.392;-6.248;2023-03-25T01:24:15;98707.63;;;7.79;91.34
43707;BME280;61348;53.392;-6.248;2023-03-25T01:26:43;98703.28;;;7.78;91.47
43707;BME280;61348;53.392;-6.248;2023-03-25T01:29:13;98705.22;;;7.74;91.30
43707;BME280;61348;53.392;-6.248;2023-03-25T01:31:40;98710.25;;;7.69;91.43
43707;BME280;61348;53.392;-6.248;2023-03-25T01:34:07;98703.88;;;7.61;91.48
43707;BME280;61348;53.392;-6.248;2023-03-25T01:36:34;98727.81;;;7.57;91.60
43707;BME280;61348;53.392;-6.248;2023-03-25T01:39:07;98713.16;;;7.50;91.65
43707;BME280;61348;53.392;-6.248;2023-03-25T01:41:35;98723.34;;;7.46;91.78
43707;BME280;61348;53.392;-6.248;2023-03-25T01:46:45;98727.53;;;7.36;91.52
43707;BME280;61348;53.392;-6.248;2023-03-25T01:49:25;98731.06;;;7.33;91.67
43707;BME280;61348;53.392;-6.248;2023-03-25T01:51:59;98734.53;;;7.30;91.63
43707;BME280;61348;53.392;-6.248;2023-03-25T01:54:28;98741.13;;;7.25;91.61
43707;BME280;61348;53.392;-6.248;2023-03-25T01:56:54;98749.38;;;7.22;91.45
43707;BME280;61348;53.392;-6.248;2023-03-25T01:59:24;98750.09;;;7.19;91.80
43707;BME280;61348;53.392;-6.248;2023-03-25T02:01:54;98759.91;;;7.16;91.68
43707;BME280;61348;53.392;-6.248;2023-03-25T02:05:00;98769.31;;;7.15;91.87
43707;BME280;61348;53.392;-6.248;2023-03-25T02:07:34;98763.78;;;7.12;91.96
43707;BME280;61348;53.392;-6.248;2023-03-25T02:10:05;98766.53;;;7.12;91.81
43707;BME280;61348;53.392;-6.248;2023-03-25T02:12:33;98785.00;;;7.15;91.86
43707;BME280;61348;53.392;-6.248;2023-03-25T02:15:02;98782.72;;;7.17;92.06
43707;BME280;61348;53.392;-6.248;2023-03-25T02:17:53;98788.22;;;7.17;91.99
43707;BME280;61348;53.392;-6.248;2023-03-25T02:20:59;98790.22;;;7.20;92.15
43707;BME280;61348;53.392;-6.248;2023-03-25T02:39:12;98820.59;;;7.27;92.54
43707;BME280;61348;53.392;-6.248;2023-03-25T02:44:33;98845.78;;;7.29;92.44
43707;BME280;61348;53.392;-6.248;2023-03-25T02:47:06;98842.63;;;7.27;92.30
43707;BME280;61348;53.392;-6.248;2023-03-25T02:49:38;98852.75;;;7.23;92.43
43707;BME280;61348;53.392;-6.248;2023-03-25T02:52:36;98852.72;;;7.19;92.58
43707;BME280;61348;53.392;-6.248;2023-03-25T02:55:07;98861.72;;;7.16;92.32
43707;BME280;61348;53.392;-6.248;2023-03-25T02:57:44;98856.16;;;7.13;92.62
43707;BME280;61348;53.392;-6.248;2023-03-25T03:03:02;98878.84;;;7.06;92.65
43707;BME280;61348;53.392;-6.248;2023-03-25T03:05:34;98887.84;;;7.03;92.70
43707;BME280;61348;53.392;-6.248;2023-03-25T03:16:49;98897.03;;;6.92;92.78
43707;BME280;61348;53.392;-6.248;2023-03-25T03:19:43;98905.69;;;6.90;92.80
43707;BME280;61348;53.392;-6.248;2023-03-25T03:22:41;98905.59;;;6.87;93.11
43707;BME280;61348;53.392;-6.248;2023-03-25T03:28:33;98921.25;;;6.83;93.26
43707;BME280;61348;53.392;-6.248;2023-03-25T03:31:28;98922.41;;;6.82;93.19
43707;BME280;61348;53.392;-6.248;2023-03-25T03:34:26;98926.69;;;6.79;93.34
43707;BME280;61348;53.392;-6.248;2023-03-25T03:36:57;98928.22;;;6.77;93.59
43707;BME280;61348;53.392;-6.248;2023-03-25T03:39:34;98930.53;;;6.74;93.33
43707;BME280;61348;53.392;-6.248;2023-03-25T03:42:10;98935.97;;;6.71;93.71
43707;BME280;61348;53.392;-6.248;2023-03-25T03:44:40;98932.41;;;6.70;93.61
43707;BME280;61348;53.392;-6.248;2023-03-25T03:47:13;98942.97;;;6.68;93.82
43707;BME280;61348;53.392;-6.248;2023-03-25T03:49:45;98952.38;;;6.67;93.92
43707;BME280;61348;53.392;-6.248;2023-03-25T03:52:16;98960.19;;;6.65;94.22
43707;BME280;61348;53.392;-6.248;2023-03-25T03:54:51;98969.63;;;6.64;93.96
43707;BME280;61348;53.392;-6.248;2023-03-25T03:57:27;98973.53;;;6.63;94.09
43707;BME280;61348;53.392;-6.248;2023-03-25T04:05:00;98984.81;;;6.58;94.24
43707;BME280;61348;53.392;-6.248;2023-03-25T04:07:39;98985.16;;;6.57;94.39
43707;BME280;61348;53.392;-6.248;2023-03-25T04:12:46;98992.16;;;6.54;94.47
43707;BME280;61348;53.392;-6.248;2023-03-25T04:15:16;98984.63;;;6.51;94.29
43707;BME280;61348;53.392;-6.248;2023-03-25T04:17:43;98995.22;;;6.49;94.91
43707;BME280;61348;53.392;-6.248;2023-03-25T04:20:14;98995.22;;;6.49;94.65
43707;BME280;61348;53.392;-6.248;2023-03-25T04:22:41;98997.53;;;6.47;95.00
43707;BME280;61348;53.392;-6.248;2023-03-25T04:25:12;99012.41;;;6.46;95.00
43707;BME280;61348;53.392;-6.248;2023-03-25T04:27:39;99012.78;;;6.45;95.08
43707;BME280;61348;53.392;-6.248;2023-03-25T04:30:07;99012.00;;;6.44;95.00
43707;BME280;61348;53.392;-6.248;2023-03-25T04:32:34;99011.19;;;6.44;95.15
43707;BME280;61348;53.392;-6.248;2023-03-25T04:35:01;99023.34;;;6.43;95.03
43707;BME280;61348;53.392;-6.248;2023-03-25T04:37:28;99025.66;;;6.41;95.20
43707;BME280;61348;53.392;-6.248;2023-03-25T04:39:55;99027.97;;;6.39;95.07
43707;BME280;61348;53.392;-6.248;2023-03-25T04:42:25;99034.97;;;6.36;95.22
43707;BME280;61348;53.392;-6.248;2023-03-25T04:44:58;99040.03;;;6.34;95.23
43707;BME280;61348;53.392;-6.248;2023-03-25T04:47:26;99043.94;;;6.33;95.11
43707;BME280;61348;53.392;-6.248;2023-03-25T04:49:53;99043.50;;;6.31;95.23
43707;BME280;61348;53.392;-6.248;2023-03-25T04:52:19;99058.84;;;6.32;95.05
43707;BME280;61348;53.392;-6.248;2023-03-25T04:54:46;99063.88;;;6.30;95.33
43707;BME280;61348;53.392;-6.248;2023-03-25T04:57:13;99064.63;;;6.27;95.22
43707;BME280;61348;53.392;-6.248;2023-03-25T04:59:40;99066.56;;;6.27;95.14
43707;BME280;61348;53.392;-6.248;2023-03-25T05:02:07;99071.63;;;6.25;95.32
43707;BME280;61348;53.392;-6.248;2023-03-25T05:04:39;99075.16;;;6.25;95.41
43707;BME280;61348;53.392;-6.248;2023-03-25T05:07:13;99081.81;;;6.24;95.18
43707;BME280;61348;53.392;-6.248;2023-03-25T05:09:42;99086.88;;;6.22;95.44
43707;BME280;61348;53.392;-6.248;2023-03-25T05:12:08;99084.91;;;6.23;95.25
43707;BME280;61348;53.392;-6.248;2023-03-25T05:14:37;99093.25;;;6.26;95.59
43707;BME280;61348;53.392;-6.248;2023-03-25T05:17:03;99090.94;;;6.28;95.59
43707;BME280;61348;53.392;-6.248;2023-03-25T05:19:30;99092.97;;;6.31;95.38
43707;BME280;61348;53.392;-6.248;2023-03-25T05:22:00;99091.47;;;6.34;95.74
43707;BME280;61348;53.392;-6.248;2023-03-25T05:24:28;99093.13;;;6.38;95.81
43707;BME280;61348;53.392;-6.248;2023-03-25T05:26:55;99105.72;;;6.39;95.75
43707;BME280;61348;53.392;-6.248;2023-03-25T05:29:22;99110.50;;;6.42;95.54
43707;BME280;61348;53.392;-6.248;2023-03-25T05:31:49;99103.88;;;6.43;95.87
43707;BME280;61348;53.392;-6.248;2023-03-25T05:34:16;99113.69;;;6.44;95.97
43707;BME280;61348;53.392;-6.248;2023-03-25T05:36:43;99115.31;;;6.45;95.78
43707;BME280;61348;53.392;-6.248;2023-03-25T05:39:10;99117.69;;;6.47;95.96
43707;BME280;61348;53.392;-6.248;2023-03-25T05:41:37;99123.19;;;6.47;96.04
43707;BME280;61348;53.392;-6.248;2023-03-25T05:44:08;99131.44;;;6.47;96.15
43707;BME280;61348;53.392;-6.248;2023-03-25T05:46:35;99129.47;;;6.47;96.16
43707;BME280;61348;53.392;-6.248;2023-03-25T05:49:02;99131.09;;;6.48;96.25
43707;BME280;61348;53.392;-6.248;2023-03-25T05:51:31;99139.78;;;6.50;96.46
43707;BME280;61348;53.392;-6.248;2023-03-25T05:53:59;99136.66;;;6.52;96.74
43707;BME280;61348;53.392;-6.248;2023-03-25T05:56:27;99141.34;;;6.51;96.51
43707;BME280;61348;53.392;-6.248;2023-03-25T05:58:54;99150.75;;;6.50;96.34
43707;BME280;61348;53.392;-6.248;2023-03-25T06:01:23;99153.09;;;6.48;96.64
43707;BME280;61348;53.392;-6.248;2023-03-25T06:04:00;99161.66;;;6.47;96.62
43707;BME280;61348;53.392;-6.248;2023-03-25T06:06:29;99159.28;;;6.45;96.77
43707;BME280;61348;53.392;-6.248;2023-03-25T06:08:55;99163.19;;;6.44;96.71
43707;BME280;61348;53.392;-6.248;2023-03-25T06:11:23;99162.75;;;6.42;96.96
43707;BME280;61348;53.392;-6.248;2023-03-25T06:13:49;99176.06;;;6.40;97.15
43707;BME280;61348;53.392;-6.248;2023-03-25T06:16:18;99174.44;;;6.39;97.08
43707;BME280;61348;53.392;-6.248;2023-03-25T06:18:47;99178.81;;;6.40;97.35
43707;BME280;61348;53.392;-6.248;2023-03-25T06:21:17;99175.59;;;6.38;97.29
43707;BME280;61348;53.392;-6.248;2023-03-25T06:23:45;99186.56;;;6.38;97.41
43707;BME280;61348;53.392;-6.248;2023-03-25T06:26:18;99190.50;;;6.37;97.67
43707;BME280;61348;53.392;-6.248;2023-03-25T06:28:45;99194.13;;;6.41;97.80
43707;BME280;61348;53.392;-6.248;2023-03-25T06:31:13;99206.44;;;6.47;97.73
43707;BME280;61348;53.392;-6.248;2023-03-25T06:33:43;99205.03;;;6.53;97.85
43707;BME280;61348;53.392;-6.248;2023-03-25T06:36:11;99208.31;;;6.59;98.04
43707;BME280;61348;53.392;-6.248;2023-03-25T06:38:38;99213.19;;;6.65;97.90
43707;BME280;61348;53.392;-6.248;2023-03-25T06:41:05;99216.47;;;6.71;97.87
43707;BME280;61348;53.392;-6.248;2023-03-25T06:43:33;99222.91;;;6.79;97.91
43707;BME280;61348;53.392;-6.248;2023-03-25T06:46:00;99217.94;;;6.84;97.83
43707;BME280;61348;53.392;-6.248;2023-03-25T06:48:26;99235.34;;;6.88;97.76
43707;BME280;61348;53.392;-6.248;2023-03-25T06:50:53;99234.28;;;6.93;98.04
43707;BME280;61348;53.392;-6.248;2023-03-25T06:53:20;99239.94;;;7.00;98.19
43707;BME280;61348;53.392;-6.248;2023-03-25T06:55:48;99248.38;;;7.07;97.96
43707;BME280;61348;53.392;-6.248;2023-03-25T06:58:17;99255.16;;;7.13;97.77
43707;BME280;61348;53.392;-6.248;2023-03-25T07:00:43;99268.66;;;7.18;97.83
43707;BME280;61348;53.392;-6.248;2023-03-25T07:03:12;99276.63;;;7.23;97.82
43707;BME280;61348;53.392;-6.248;2023-03-25T07:05:40;99277.16;;;7.28;97.69
43707;BME280;61348;53.392;-6.248;2023-03-25T07:08:07;99280.00;;;7.32;97.69
43707;BME280;61348;53.392;-6.248;2023-03-25T07:10:34;99289.56;;;7.38;97.89
43707;BME280;61348;53.392;-6.248;2023-03-25T07:13:01;99289.72;;;7.45;97.76
43707;BME280;61348;53.392;-6.248;2023-03-25T07:15:27;99283.50;;;7.48;97.60
43707;BME280;61348;53.392;-6.248;2023-03-25T07:17:54;99306.41;;;7.52;97.58
43707;BME280;61348;53.392;-6.248;2023-03-25T07:20:21;99293.84;;;7.55;97.64
43707;BME280;61348;53.392;-6.248;2023-03-25T07:22:48;99296.28;;;7.56;97.51
43707;BME280;61348;53.392;-6.248;2023-03-25T07:25:15;99301.06;;;7.59;97.43
43707;BME280;61348;53.392;-6.248;2023-03-25T07:27:41;99305.06;;;7.62;97.47
43707;BME280;61348;53.392;-6.248;2023-03-25T07:30:08;99298.38;;;7.63;97.45
43707;BME280;61348;53.392;-6.248;2023-03-25T07:32:35;99291.72;;;7.64;97.50
43707;BME280;61348;53.392;-6.248;2023-03-25T07:35:02;99296.50;;;7.67;97.50
43707;BME280;61348;53.392;-6.248;2023-03-25T07:37:29;99306.72;;;7.66;97.40
43707;BME280;61348;53.392;-6.248;2023-03-25T07:39:56;99304.34;;;7.65;97.27
43707;BME280;61348;53.392;-6.248;2023-03-25T07:42:23;99303.59;;;7.68;97.41
43707;BME280;61348;53.392;-6.248;2023-03-25T07:44:49;99310.63;;;7.65;97.36
43707;BME280;61348;53.392;-6.248;2023-03-25T07:47:17;99323.66;;;7.68;97.54
43707;BME280;61348;53.392;-6.248;2023-03-25T07:49:45;99321.09;;;7.75;97.62
43707;BME280;61348;53.392;-6.248;2023-03-25T07:52:13;99333.91;;;7.87;97.51
43707;BME280;61348;53.392;-6.248;2023-03-25T07:54:39;99346.78;;;7.98;97.08
43707;BME280;61348;53.392;-6.248;2023-03-25T07:57:06;99345.03;;;8.10;97.00
43707;BME280;61348;53.392;-6.248;2023-03-25T07:59:33;99347.50;;;8.15;96.67
43707;BME280;61348;53.392;-6.248;2023-03-25T08:02:00;99345.59;;;8.19;96.70
43707;BME280;61348;53.392;-6.248;2023-03-25T08:04:26;99361.44;;;8.22;96.65
43707;BME280;61348;53.392;-6.248;2023-03-25T08:06:53;99352.81;;;8.23;96.66
43707;BME280;61348;53.392;-6.248;2023-03-25T08:09:20;99354.50;;;8.28;96.56
43707;BME280;61348;53.392;-6.248;2023-03-25T08:11:47;99353.78;;;8.31;96.40
43707;BME280;61348;53.392;-6.248;2023-03-25T08:14:14;99364.72;;;8.27;96.27
43707;BME280;61348;53.392;-6.248;2023-03-25T08:16:41;99363.09;;;8.26;96.18
43707;BME280;61348;53.392;-6.248;2023-03-25T08:19:07;99360.00;;;8.28;96.33
43707;BME280;61348;53.392;-6.248;2023-03-25T08:21:34;99368.78;;;8.33;96.30
43707;BME280;61348;53.392;-6.248;2023-03-25T08:24:01;99382.34;;;8.42;96.32
43707;BME280;61348;53.392;-6.248;2023-03-25T08:26:31;99382.50;;;8.49;96.06
43707;BME280;61348;53.392;-6.248;2023-03-25T08:29:01;99389.75;;;8.57;96.08
43707;BME280;61348;53.392;-6.248;2023-03-25T08:31:30;99389.78;;;8.61;95.65
43707;BME280;61348;53.392;-6.248;2023-03-25T08:33:59;99398.16;;;8.64;95.20
43707;BME280;61348;53.392;-6.248;2023-03-25T08:36:25;99401.03;;;8.71;95.28
43707;BME280;61348;53.392;-6.248;2023-03-25T08:38:53;99405.97;;;8.81;95.17
43707;BME280;61348;53.392;-6.248;2023-03-25T08:41:20;99409.97;;;8.84;94.90
43707;BME280;61348;53.392;-6.248;2023-03-25T08:43:47;99413.28;;;8.93;95.16
43707;BME280;61348;53.392;-6.248;2023-03-25T08:46:14;99424.91;;;9.02;94.80
43707;BME280;61348;53.392;-6.248;2023-03-25T08:48:41;99425.81;;;9.09;94.50
43707;BME280;61348;53.392;-6.248;2023-03-25T08:51:10;99430.31;;;9.17;94.34
43707;BME280;61348;53.392;-6.248;2023-03-25T08:53:37;99424.16;;;9.28;94.42
43707;BME280;61348;53.392;-6.248;2023-03-25T08:56:04;99440.56;;;9.40;94.42
43707;BME280;61348;53.392;-6.248;2023-03-25T08:58:31;99438.75;;;9.51;94.23
43707;BME280;61348;53.392;-6.248;2023-03-25T09:00:58;99453.78;;;9.53;93.70
43707;BME280;61348;53.392;-6.248;2023-03-25T09:03:24;99461.66;;;9.51;93.34
43707;BME280;61348;53.392;-6.248;2023-03-25T09:05:54;99460.84;;;9.51;93.41
43707;BME280;61348;53.392;-6.248;2023-03-25T09:08:21;99460.91;;;9.54;93.30
43707;BME280;61348;53.392;-6.248;2023-03-25T09:10:48;99459.00;;;9.58;92.89
43707;BME280;61348;53.392;-6.248;2023-03-25T09:13:15;99468.97;;;9.63;92.79
43707;BME280;61348;53.392;-6.248;2023-03-25T09:15:42;99470.53;;;9.64;92.45
43707;BME280;61348;53.392;-6.248;2023-03-25T09:18:08;99467.69;;;9.83;93.03
43707;BME280;61348;53.392;-6.248;2023-03-25T09:20:35;99485.03;;;10.29;92.60
43707;BME280;61348;53.392;-6.248;2023-03-25T09:23:02;99475.94;;;10.58;91.08
43707;BME280;61348;53.392;-6.248;2023-03-25T09:25:29;99489.03;;;10.65;90.89
43707;BME280;61348;53.392;-6.248;2023-03-25T09:27:55;99488.13;;;10.54;89.90
43707;BME280;61348;53.392;-6.248;2023-03-25T09:30:22;99496.28;;;10.73;91.11
43707;BME280;61348;53.392;-6.248;2023-03-25T09:32:49;99492.44;;;11.18;90.54
43707;BME280;61348;53.392;-6.248;2023-03-25T09:35:16;99493.72;;;11.64;88.70
43707;BME280;61348;53.392;-6.248;2023-03-25T09:37:43;99485.56;;;12.36;87.24
43707;BME280;61348;53.392;-6.248;2023-03-25T09:40:13;99492.28;;;13.14;86.06
43707;BME280;61348;53.392;-6.248;2023-03-25T09:45:33;99495.13;;;15.42;81.49
43707;BME280;61348;53.392;-6.248;2023-03-25T09:48:07;99492.53;;;15.76;79.94
43707;BME280;61348;53.392;-6.248;2023-03-25T09:50:40;99500.13;;;16.20;78.31
43707;BME280;61348;53.392;-6.248;2023-03-25T09:55:40;99489.25;;;15.88;77.31
43707;BME280;61348;53.392;-6.248;2023-03-25T09:58:37;99508.16;;;16.14;75.10
43707;BME280;61348;53.392;-6.248;2023-03-25T10:11:58;99515.28;;;13.11;72.66
43707;BME280;61348;53.392;-6.248;2023-03-25T10:15:02;99516.25;;;12.64;72.74
43707;BME280;61348;53.392;-6.248;2023-03-25T10:23:21;99525.69;;;11.91;72.43
43707;BME280;61348;53.392;-6.248;2023-03-25T10:25:55;99517.22;;;13.04;72.06
43707;BME280;61348;53.392;-6.248;2023-03-25T10:28:31;99534.84;;;14.70;68.14
43707;BME280;61348;53.392;-6.248;2023-03-25T10:30:59;99543.53;;;15.80;64.91
43707;BME280;61348;53.392;-6.248;2023-03-25T10:33:34;99544.56;;;16.44;63.93
43707;BME280;61348;53.392;-6.248;2023-03-25T10:36:05;99560.16;;;17.20;61.94
43707;BME280;61348;53.392;-6.248;2023-03-25T10:38:34;99563.63;;;17.61;60.19
43707;BME280;61348;53.392;-6.248;2023-03-25T10:41:13;99564.09;;;17.56;59.26
43707;BME280;61348;53.392;-6.248;2023-03-25T10:43:42;99571.00;;;17.45;58.48
43707;BME280;61348;53.392;-6.248;2023-03-25T10:46:28;99569.69;;;17.56;58.45
43707;BME280;61348;53.392;-6.248;2023-03-25T10:48:57;99574.81;;;17.61;56.76
43707;BME280;61348;53.392;-6.248;2023-03-25T10:51:34;99568.63;;;17.13;57.75
43707;BME280;61348;53.392;-6.248;2023-03-25T10:54:01;99575.44;;;17.42;57.28
43707;BME280;61348;53.392;-6.248;2023-03-25T10:56:35;99569.44;;;17.44;55.94
43707;BME280;61348;53.392;-6.248;2023-03-25T11:01:56;99573.06;;;15.70;58.28
43707;BME280;61348;53.392;-6.248;2023-03-25T11:04:35;99563.94;;;14.69;59.51
43707;BME280;61348;53.392;-6.248;2023-03-25T11:07:02;99569.50;;;14.20;60.86
43707;BME280;61348;53.392;-6.248;2023-03-25T11:09:33;99568.28;;;13.78;60.71
43707;BME280;61348;53.392;-6.248;2023-03-25T11:12:04;99568.25;;;13.50;61.46
43707;BME280;61348;53.392;-6.248;2023-03-25T11:14:37;99565.03;;;13.41;61.73
43707;BME280;61348;53.392;-6.248;2023-03-25T11:17:15;99560.25;;;13.31;62.10
43707;BME280;61348;53.392;-6.248;2023-03-25T11:20:00;99564.56;;;13.21;62.13
43707;BME280;61348;53.392;-6.248;2023-03-25T11:22:36;99570.06;;;13.11;62.43
43707;BME280;61348;53.392;-6.248;2023-03-25T11:27:45;99565.19;;;12.90;63.20
43707;BME280;61348;53.392;-6.248;2023-03-25T11:30:19;99566.06;;;13.05;63.35
43707;BME280;61348;53.392;-6.248;2023-03-25T11:33:02;99566.91;;;13.16;63.32
43707;BME280;61348;53.392;-6.248;2023-03-25T11:35:35;99566.94;;;13.19;63.86
43707;BME280;61348;53.392;-6.248;2023-03-25T11:38:18;99561.34;;;13.16;64.05
43707;BME280;61348;53.392;-6.248;2023-03-25T11:40:55;99564.53;;;13.14;64.39
43707;BME280;61348;53.392;-6.248;2023-03-25T11:43:36;99565.34;;;13.15;64.87
43707;BME280;61348;53.392;-6.248;2023-03-25T11:46:22;99567.75;;;13.27;65.02
43707;BME280;61348;53.392;-6.248;2023-03-25T11:48:49;99559.06;;;13.35;65.26
43707;BME280;61348;53.392;-6.248;2023-03-25T11:51:22;99556.72;;;13.45;65.26
43707;BME280;61348;53.392;-6.248;2023-03-25T11:53:56;99565.41;;;13.43;65.07
43707;BME280;61348;53.392;-6.248;2023-03-25T11:56:33;99572.59;;;13.44;65.04
43707;BME280;61348;53.392;-6.248;2023-03-25T11:59:00;99566.59;;;13.35;65.14
43707;BME280;61348;53.392;-6.248;2023-03-25T12:01:46;99566.97;;;13.37;65.57
43707;BME280;61348;53.392;-6.248;2023-03-25T12:04:21;99560.66;;;13.43;65.16
43707;BME280;61348;53.392;-6.248;2023-03-25T12:09:18;99572.59;;;13.51;65.04
43707;BME280;61348;53.392;-6.248;2023-03-25T12:26:00;99573.56;;;12.97;64.10
43707;BME280;61348;53.392;-6.248;2023-03-25T12:28:37;99562.81;;;12.92;64.07
43707;BME280;61348;53.392;-6.248;2023-03-25T12:31:15;99567.63;;;13.06;64.42
43707;BME280;61348;53.392;-6.248;2023-03-25T12:34:07;99565.34;;;13.15;64.05
43707;BME280;61348;53.392;-6.248;2023-03-25T12:42:12;99573.16;;;12.99;63.55
43707;BME280;61348;53.392;-6.248;2023-03-25T12:47:53;99572.31;;;12.88;63.46
43707;BME280;61348;53.392;-6.248;2023-03-25T12:56:30;99572.06;;;12.45;63.79
43707;BME280;61348;53.392;-6.248;2023-03-25T13:07:12;99562.34;;;12.79;64.82
43707;BME280;61348;53.392;-6.248;2023-03-25T13:13:00;99564.59;;;13.32;64.54
43707;BME280;61348;53.392;-6.248;2023-03-25T13:17:37;99559.94;;;13.71;64.71
43707;BME280;61348;53.392;-6.248;2023-03-25T13:20:09;99561.53;;;13.90;64.64
43707;BME280;61348;53.392;-6.248;2023-03-25T13:22:46;99561.56;;;14.08;64.70
43707;BME280;61348;53.392;-6.248;2023-03-25T13:25:20;99564.72;;;14.06;64.31
43707;BME280;61348;53.392;-6.248;2023-03-25T13:27:50;99558.38;;;13.84;64.29
43707;BME280;61348;53.392;-6.248;2023-03-25T13:30:25;99559.09;;;13.53;64.44
43707;BME280;61348;53.392;-6.248;2023-03-25T13:33:04;99568.97;;;13.26;65.01
43707;BME280;61348;53.392;-6.248;2023-03-25T13:35:48;99588.66;;;13.03;65.42
43707;BME280;61348;53.392;-6.248;2023-03-25T13:38:30;99581.72;;;12.65;65.94
43707;BME280;61348;53.392;-6.248;2023-03-25T13:41:29;99567.09;;;12.17;66.97
43707;BME280;61348;53.392;-6.248;2023-03-25T13:49:40;99562.13;;;11.93;69.04
43707;BME280;61348;53.392;-6.248;2023-03-25T13:52:08;99553.16;;;12.10;69.45
43707;BME280;61348;53.392;-6.248;2023-03-25T13:54:58;99553.00;;;12.40;69.80
43707;BME280;61348;53.392;-6.248;2023-03-25T14:05:44;99540.84;;;13.52;69.71
43707;BME280;61348;53.392;-6.248;2023-03-25T14:11:29;99532.13;;;13.71;69.53
43707;BME280;61348;53.392;-6.248;2023-03-25T14:14:09;99534.50;;;13.69;70.03
43707;BME280;61348;53.392;-6.248;2023-03-25T14:16:40;99544.03;;;13.72;69.96
43707;BME280;61348;53.392;-6.248;2023-03-25T14:19:12;99537.69;;;13.61;69.87
43707;BME280;61348;53.392;-6.248;2023-03-25T14:21:42;99546.38;;;13.52;69.82
43707;BME280;61348;53.392;-6.248;2023-03-25T14:24:35;99532.47;;;13.41;69.88
43707;BME280;61348;53.392;-6.248;2023-03-25T14:27:28;99537.19;;;13.27;69.61
43707;BME280;61348;53.392;-6.248;2023-03-25T14:30:06;99541.91;;;13.16;69.46
43707;BME280;61348;53.392;-6.248;2023-03-25T14:32:44;99544.59;;;13.02;69.55
43707;BME280;61348;53.392;-6.248;2023-03-25T14:43:37;99544.06;;;12.13;71.67
43707;BME280;61348;53.392;-6.248;2023-03-25T14:48:42;99555.41;;;12.45;72.25
43707;BME280;61348;53.392;-6.248;2023-03-25T14:59:21;99540.88;;;14.26;70.55
43707;BME280;61348;53.392;-6.248;2023-03-25T15:01:50;99535.31;;;14.44;70.28
43707;BME280;61348;53.392;-6.248;2023-03-25T15:04:22;99535.28;;;14.58;69.60
43707;BME280;61348;53.392;-6.248;2023-03-25T15:06:50;99531.72;;;14.43;69.03
43707;BME280;61348;53.392;-6.248;2023-03-25T15:09:18;99530.13;;;14.25;69.19
43707;BME280;61348;53.392;-6.248;2023-03-25T15:11:57;99531.75;;;14.04;69.32
43707;BME280;61348;53.392;-6.248;2023-03-25T15:14:37;99530.53;;;13.91;69.48
43707;BME280;61348;53.392;-6.248;2023-03-25T15:17:09;99526.56;;;13.85;69.60
43707;BME280;61348;53.392;-6.248;2023-03-25T15:22:24;99524.19;;;13.91;69.84
43707;BME280;61348;53.392;-6.248;2023-03-25T15:24:54;99519.41;;;13.88;69.76
43707;BME280;61348;53.392;-6.248;2023-03-25T15:38:44;99506.63;;;13.30;69.73
43707;BME280;61348;53.392;-6.248;2023-03-25T15:50:12;99510.53;;;13.12;70.45
43707;BME280;61348;53.392;-6.248;2023-03-25T15:53:07;99494.34;;;13.42;70.64
43707;BME280;61348;53.392;-6.248;2023-03-25T15:55:44;99495.56;;;13.69;70.24
43707;BME280;61348;53.392;-6.248;2023-03-25T15:58:22;99499.16;;;13.73;69.92
43707;BME280;61348;53.392;-6.248;2023-03-25T16:00:53;99491.59;;;13.63;69.86
43707;BME280;61348;53.392;-6.248;2023-03-25T16:03:24;99491.94;;;13.40;69.89
43707;BME280;61348;53.392;-6.248;2023-03-25T16:05:58;99488.34;;;13.22;70.38
43707;BME280;61348;53.392;-6.248;2023-03-25T16:08:30;99474.00;;;13.10;70.80
43707;BME280;61348;53.392;-6.248;2023-03-25T16:11:22;99475.16;;;13.02;70.58
43707;BME280;61348;53.392;-6.248;2023-03-25T16:14:20;99479.47;;;12.89;70.85